Namao, Canada
Current Conditions -  °F | °C
As of 8:00 AM on Saturday 20 Dec 2014 (Local Time) from CYED Reporting Station
Clear Clear  
Wind Chill: 18°   Ceiling: Unl
Heat Index: 18°   Visibility: 9mi
Dew Point: 14°   Wind: 3mph
Humidity: 86%   Direction: 220°SW
Pressure: 29.67"   Gusts: NA
Location:  53.72°N, 113.48°W
Report Text: CYED 201500Z AUTO 22003KT 9SM CLR M08/M10 A2967 RMK SLP087
Loading
Personal Weather Stations






























Interactive Weather Map New forecast layout! Learn more

10-Day Weather Forecast

Advertisements
Track Severe Weather on mobile